createdAt,value
2022-09-13T00:01:01.614Z,23.24
2022-09-13T00:03:29.364Z,23.25
2022-09-13T00:05:56.753Z,23.09
2022-09-13T00:08:24.406Z,23.14
2022-09-13T00:10:51.203Z,23.28
2022-09-13T00:13:18.363Z,23.32
2022-09-13T00:15:49.712Z,23.20
2022-09-13T00:18:18.260Z,23.28
2022-09-13T00:20:45.268Z,23.30
2022-09-13T00:23:12.573Z,23.19
2022-09-13T00:25:40.273Z,23.16
2022-09-13T00:28:07.413Z,23.25
2022-09-13T00:30:34.753Z,23.35
2022-09-13T00:33:04.755Z,23.24
2022-09-13T00:35:32.224Z,23.35
2022-09-13T00:38:02.545Z,23.51
2022-09-13T00:40:30.648Z,23.24
2022-09-13T00:42:57.631Z,23.33
2022-09-13T00:45:24.653Z,23.20
2022-09-13T00:47:57.273Z,23.60
2022-09-13T00:50:43.981Z,23.51
2022-09-13T00:53:15.920Z,23.57
2022-09-13T00:55:45.665Z,23.72
2022-09-13T00:58:21.078Z,23.76
2022-09-13T01:00:49.206Z,23.67
2022-09-13T01:03:19.246Z,23.36
2022-09-13T01:05:50.997Z,23.47
2022-09-13T01:08:22.635Z,23.49
2022-09-13T01:10:56.717Z,23.33
2022-09-13T01:13:26.626Z,23.14
2022-09-13T01:15:53.547Z,23.37
2022-09-13T01:18:20.815Z,23.40
2022-09-13T01:21:02.672Z,22.74
2022-09-13T01:23:35.508Z,22.01
2022-09-13T01:26:05.465Z,21.70
2022-09-13T01:28:50.566Z,21.28
2022-09-13T01:31:23.488Z,21.55
2022-09-13T01:34:05.572Z,21.97
2022-09-13T01:36:36.692Z,22.07
2022-09-13T01:39:06.931Z,22.28
2022-09-13T01:42:04.112Z,22.54
2022-09-13T01:44:49.795Z,22.43
2022-09-13T01:47:26.232Z,22.69
2022-09-13T01:49:59.546Z,22.76
2022-09-13T01:52:39.371Z,22.85
2022-09-13T01:55:09.486Z,22.62
2022-09-13T01:57:40.420Z,22.51
2022-09-13T02:00:16.848Z,22.94
2022-09-13T02:03:10.997Z,22.99
2022-09-13T02:05:52.279Z,22.84
2022-09-13T02:08:32.772Z,22.79
2022-09-13T02:11:11.536Z,22.41
2022-09-13T02:14:01.382Z,21.58
2022-09-13T02:16:36.240Z,21.28
2022-09-13T02:19:15.337Z,21.55
2022-09-13T02:21:45.392Z,21.52
2022-09-13T02:24:21.766Z,21.75
2022-09-13T02:26:53.035Z,21.98
2022-09-13T02:29:24.776Z,22.29
2022-09-13T02:32:21.779Z,22.43
2022-09-13T02:34:58.332Z,22.60
2022-09-13T02:37:29.908Z,22.49
2022-09-13T02:40:03.699Z,22.49
2022-09-13T02:42:37.969Z,22.53
2022-09-13T02:45:07.222Z,22.50
2022-09-13T02:48:00.049Z,22.74
2022-09-13T02:51:06.546Z,22.88
2022-09-13T02:53:44.106Z,22.88
2022-09-13T02:56:13.449Z,22.64
2022-09-13T02:59:06.521Z,22.37
2022-09-13T03:01:36.382Z,21.78
2022-09-13T03:04:03.657Z,21.64
2022-09-13T03:06:30.990Z,21.54
2022-09-13T03:09:04.055Z,21.53
2022-09-13T03:11:33.702Z,21.60
2022-09-13T03:14:00.444Z,21.51
2022-09-13T03:16:28.077Z,21.44
2022-09-13T03:19:22.904Z,21.09
2022-09-13T03:22:17.560Z,21.48
2022-09-13T03:25:03.132Z,21.54
2022-09-13T03:27:29.878Z,21.71
2022-09-13T03:30:04.818Z,21.59
2022-09-13T03:32:46.788Z,21.56
2022-09-13T03:35:20.536Z,21.41
2022-09-13T03:38:14.893Z,21.43
2022-09-13T03:40:51.920Z,21.49
2022-09-13T03:43:26.408Z,21.40
2022-09-13T03:45:58.240Z,21.35
2022-09-13T03:48:26.020Z,21.41
2022-09-13T03:50:53.995Z,21.37
2022-09-13T03:53:25.429Z,21.10
2022-09-13T03:55:52.388Z,21.41
2022-09-13T03:58:21.369Z,21.29
2022-09-13T04:00:48.548Z,20.71
2022-09-13T04:03:15.615Z,20.09
2022-09-13T04:05:42.493Z,20.04
2022-09-13T04:08:10.257Z,20.04
2022-09-13T04:10:37.985Z,19.99
2022-09-13T04:13:05.445Z,19.88
2022-09-13T04:15:32.487Z,20.16
2022-09-13T04:18:01.256Z,20.06
2022-09-13T04:20:28.469Z,20.19
2022-09-13T04:22:57.715Z,20.38
2022-09-13T04:25:24.929Z,20.49
2022-09-13T04:28:00.141Z,20.63
2022-09-13T04:30:30.306Z,20.64
2022-09-13T04:32:59.681Z,20.92
2022-09-13T04:35:27.201Z,20.84
2022-09-13T04:37:56.882Z,21.10
2022-09-13T04:40:24.468Z,21.14
2022-09-13T04:42:51.654Z,20.96
2022-09-13T04:45:18.404Z,20.93
2022-09-13T04:47:45.154Z,21.08
2022-09-13T04:50:11.883Z,21.13
2022-09-13T04:52:38.637Z,21.02
2022-09-13T04:55:05.866Z,21.29
2022-09-13T04:57:32.675Z,21.26
2022-09-13T04:59:59.408Z,21.14
2022-09-13T05:02:26.154Z,21.34
2022-09-13T05:04:53.167Z,21.24
2022-09-13T05:07:19.888Z,21.14
2022-09-13T05:09:46.649Z,21.23
2022-09-13T05:12:13.814Z,21.28
2022-09-13T05:14:40.669Z,21.15
2022-09-13T05:17:07.664Z,21.19
2022-09-13T05:19:35.342Z,21.16
2022-09-13T05:22:02.788Z,21.26
2022-09-13T05:24:29.517Z,21.08
2022-09-13T05:26:56.377Z,21.16
2022-09-13T05:29:23.079Z,21.18
2022-09-13T05:31:49.821Z,21.19
2022-09-13T05:34:20.585Z,21.22
2022-09-13T05:36:53.164Z,21.27
2022-09-13T05:39:43.577Z,21.11
2022-09-13T05:42:09.322Z,21.06
2022-09-13T05:44:36.273Z,21.23
2022-09-13T05:47:03.013Z,21.26
2022-09-13T05:49:29.725Z,21.02
2022-09-13T05:51:56.757Z,20.87
2022-09-13T05:54:24.768Z,20.96
2022-09-13T05:56:52.687Z,20.94
2022-09-13T05:59:19.584Z,21.04
2022-09-13T06:01:46.566Z,21.01
2022-09-13T06:04:13.312Z,20.99
2022-09-13T06:06:40.278Z,21.06
2022-09-13T06:09:08.873Z,21.10
2022-09-13T06:11:35.708Z,21.19
2022-09-13T06:14:02.537Z,20.94
2022-09-13T06:16:29.388Z,21.15
2022-09-13T06:18:56.149Z,21.00
2022-09-13T06:21:28.298Z,20.97
2022-09-13T06:23:56.489Z,20.85
2022-09-13T06:26:25.602Z,20.82
2022-09-13T06:28:54.616Z,20.87
2022-09-13T06:31:23.745Z,20.81
2022-09-13T06:33:59.585Z,20.79
2022-09-13T06:36:27.297Z,20.60
2022-09-13T06:38:54.022Z,20.59
2022-09-13T06:41:23.565Z,20.45
2022-09-13T06:43:55.565Z,20.50
2022-09-13T06:46:25.180Z,20.27
2022-09-13T06:48:52.852Z,20.07
2022-09-13T06:51:24.450Z,20.04
2022-09-13T06:53:53.609Z,20.09
2022-09-13T06:56:23.544Z,19.87
2022-09-13T06:58:52.878Z,20.02
2022-09-13T07:01:24.037Z,19.85
2022-09-13T07:03:54.422Z,19.79
2022-09-13T07:06:24.466Z,19.65
2022-09-13T07:08:52.885Z,19.62
2022-09-13T07:11:21.960Z,19.59
2022-09-13T07:13:53.842Z,19.72
2022-09-13T07:16:22.834Z,19.59
2022-09-13T07:19:03.197Z,19.70
2022-09-13T07:21:29.929Z,19.70
2022-09-13T07:23:57.393Z,19.65
2022-09-13T07:26:27.081Z,19.64
2022-09-13T07:28:56.596Z,19.73
2022-09-13T07:31:35.721Z,19.66
2022-09-13T07:34:05.424Z,19.90
2022-09-13T07:36:34.211Z,19.77
2022-09-13T07:39:02.026Z,19.95
2022-09-13T07:41:30.466Z,20.11
2022-09-13T07:44:00.945Z,20.36
2022-09-13T07:46:36.879Z,20.51
2022-09-13T07:49:03.954Z,20.69
2022-09-13T07:51:32.922Z,20.44
2022-09-13T07:54:02.544Z,20.59
2022-09-13T07:56:32.112Z,20.53
2022-09-13T07:59:01.133Z,20.74
2022-09-13T08:01:30.452Z,20.85
2022-09-13T08:04:02.469Z,20.76
2022-09-13T08:06:32.276Z,20.91
2022-09-13T08:08:59.078Z,21.03
2022-09-13T08:11:27.896Z,21.13
2022-09-13T08:13:55.187Z,21.28
2022-09-13T08:16:23.903Z,21.17
2022-09-13T08:18:53.848Z,21.33
2022-09-13T08:21:21.633Z,21.36
2022-09-13T08:23:48.825Z,21.32
2022-09-13T08:26:16.901Z,21.43
2022-09-13T08:28:43.864Z,21.43
2022-09-13T08:31:14.220Z,21.45
2022-09-13T08:33:46.593Z,21.35
2022-09-13T08:36:13.742Z,21.00
2022-09-13T08:38:44.847Z,20.27
2022-09-13T08:41:23.675Z,20.30
2022-09-13T08:43:58.505Z,20.02
2022-09-13T08:46:33.761Z,20.26
2022-09-13T08:49:05.300Z,20.21
2022-09-13T08:51:38.216Z,20.59
2022-09-13T08:54:05.632Z,20.97
2022-09-13T08:56:41.738Z,21.02
2022-09-13T08:59:22.704Z,21.12
2022-09-13T09:02:27.252Z,21.16
2022-09-13T09:05:22.181Z,21.33
2022-09-13T09:08:15.797Z,21.45
2022-09-13T09:10:53.624Z,21.22
2022-09-13T09:13:38.262Z,21.28
2022-09-13T09:16:27.241Z,20.99
2022-09-13T09:18:58.142Z,20.94
2022-09-13T09:21:25.214Z,20.69
2022-09-13T09:23:56.109Z,20.42
2022-09-13T09:26:29.739Z,20.30
2022-09-13T09:29:01.727Z,20.20
2022-09-13T09:32:03.331Z,20.18
2022-09-13T09:34:54.196Z,20.22
2022-09-13T09:37:24.651Z,20.41
2022-09-13T09:39:53.386Z,20.32
2022-09-13T09:42:25.119Z,20.20
2022-09-13T09:44:55.516Z,20.12
2022-09-13T09:47:29.723Z,20.15
2022-09-13T09:50:13.160Z,20.26
2022-09-13T09:53:16.208Z,20.31
2022-09-13T09:56:06.780Z,20.56
2022-09-13T09:58:45.398Z,20.92
2022-09-13T10:01:25.569Z,20.83
2022-09-13T10:04:12.957Z,20.69
2022-09-13T10:06:42.086Z,20.68
2022-09-13T10:09:14.918Z,20.45
2022-09-13T10:11:44.470Z,20.22
2022-09-13T10:14:34.924Z,20.17
2022-09-13T10:17:28.187Z,19.88
2022-09-13T10:20:02.319Z,19.93
2022-09-13T10:22:31.440Z,19.83
2022-09-13T10:25:23.933Z,19.86
2022-09-13T10:27:57.376Z,19.84
2022-09-13T10:30:31.410Z,19.62
2022-09-13T10:32:59.058Z,19.98
2022-09-13T10:35:26.574Z,20.37
2022-09-13T10:37:53.561Z,20.38
2022-09-13T10:40:30.596Z,20.43
2022-09-13T10:42:59.122Z,20.63
2022-09-13T10:45:28.801Z,20.90
2022-09-13T10:48:04.374Z,21.54
2022-09-13T10:50:31.605Z,22.19
2022-09-13T10:52:59.859Z,22.50
2022-09-13T10:55:35.865Z,22.89
2022-09-13T10:58:02.578Z,23.57
2022-09-13T11:00:36.084Z,23.41
2022-09-13T11:03:40.605Z,23.30
2022-09-13T11:06:17.327Z,23.17
2022-09-13T11:09:11.195Z,22.97
2022-09-13T11:12:07.018Z,22.87
2022-09-13T11:14:59.809Z,23.08
2022-09-13T11:17:48.301Z,23.30
2022-09-13T11:20:18.416Z,23.32
2022-09-13T11:22:58.652Z,23.42
2022-09-13T11:25:57.542Z,23.32
2022-09-13T11:28:36.640Z,22.98
2022-09-13T11:31:22.158Z,22.75
2022-09-13T11:34:23.522Z,22.65
2022-09-13T11:37:15.342Z,22.56
2022-09-13T11:40:26.946Z,22.38
2022-09-13T11:43:00.182Z,22.11
2022-09-13T11:45:33.212Z,21.94
2022-09-13T11:48:23.884Z,21.59
2022-09-13T11:51:29.442Z,21.82
2022-09-13T11:54:07.474Z,21.93
2022-09-13T11:56:40.659Z,21.80
2022-09-13T11:59:31.053Z,21.66
2022-09-13T12:02:03.981Z,21.97
2022-09-13T12:04:59.363Z,21.89
2022-09-13T12:07:40.533Z,21.93
2022-09-13T12:10:25.671Z,22.08
2022-09-13T12:12:54.158Z,21.67
2022-09-13T12:15:37.749Z,21.37
2022-09-13T12:18:07.910Z,21.50
2022-09-13T12:20:36.332Z,21.99
2022-09-13T12:23:13.109Z,22.76
2022-09-13T12:25:48.533Z,23.46
2022-09-13T12:28:18.765Z,23.13
2022-09-13T12:30:59.783Z,22.78
2022-09-13T12:33:26.992Z,23.19
2022-09-13T12:36:12.360Z,25.27
2022-09-13T12:39:00.829Z,25.94
2022-09-13T12:41:47.651Z,25.98
2022-09-13T12:44:43.874Z,27.30
2022-09-13T12:47:13.659Z,27.97
2022-09-13T12:50:15.107Z,27.76
2022-09-13T12:53:37.441Z,27.27
2022-09-13T12:56:04.452Z,28.09
2022-09-13T12:58:38.027Z,29.03
2022-09-13T13:01:07.650Z,29.60
2022-09-13T13:03:50.326Z,30.17
2022-09-13T13:06:38.783Z,30.02
2022-09-13T13:09:46.032Z,27.90
2022-09-13T13:12:34.391Z,26.30
2022-09-13T13:15:06.740Z,25.23
2022-09-13T13:17:51.454Z,25.39
2022-09-13T13:20:44.202Z,24.89
2022-09-13T13:23:31.275Z,24.49
2022-09-13T13:26:01.136Z,24.35
2022-09-13T13:28:51.028Z,24.46
2022-09-13T13:31:32.843Z,24.67
2022-09-13T13:34:15.023Z,24.80
2022-09-13T13:36:41.730Z,24.83
2022-09-13T13:39:34.764Z,24.69
2022-09-13T13:42:01.631Z,24.86
2022-09-13T13:44:28.537Z,25.08
2022-09-13T13:47:15.612Z,25.04
2022-09-13T13:49:52.711Z,24.78
2022-09-13T13:52:22.918Z,24.83
2022-09-13T13:54:57.489Z,24.71
2022-09-13T13:57:41.382Z,24.59
2022-09-13T14:00:22.373Z,24.81
2022-09-13T14:02:55.069Z,24.76
2022-09-13T14:05:46.112Z,24.81
2022-09-13T14:08:50.002Z,24.55
2022-09-13T14:11:35.865Z,24.48
2022-09-13T14:14:24.513Z,24.58
2022-09-13T14:17:33.261Z,24.68
2022-09-13T14:20:14.234Z,24.67
2022-09-13T14:22:41.106Z,24.66
2022-09-13T14:25:34.232Z,24.47
2022-09-13T14:28:02.589Z,24.26
2022-09-13T14:30:37.668Z,24.53
2022-09-13T14:33:06.416Z,24.16
2022-09-13T14:35:41.289Z,24.34
2022-09-13T14:38:22.840Z,24.26
2022-09-13T14:40:51.903Z,24.40
2022-09-13T14:43:24.225Z,24.46
2022-09-13T14:46:02.940Z,24.40
2022-09-13T14:48:39.134Z,24.47
2022-09-13T14:51:27.723Z,24.50
2022-09-13T14:54:04.869Z,24.43
2022-09-13T14:56:31.834Z,24.71
2022-09-13T14:59:01.898Z,24.44
2022-09-13T15:01:34.760Z,24.11
2022-09-13T15:04:04.118Z,24.23
2022-09-13T15:06:38.570Z,24.17
2022-09-13T15:09:11.834Z,24.13
2022-09-13T15:11:56.996Z,24.09
2022-09-13T15:14:31.394Z,24.06
2022-09-13T15:17:16.070Z,23.97
2022-09-13T15:19:51.268Z,24.13
2022-09-13T15:22:31.615Z,24.01
2022-09-13T15:25:02.729Z,23.76
2022-09-13T15:27:45.239Z,23.15
2022-09-13T15:30:27.207Z,23.88
2022-09-13T15:33:17.752Z,23.73
2022-09-13T15:35:46.645Z,23.90
2022-09-13T15:38:34.513Z,23.80
2022-09-13T15:41:14.512Z,23.79
2022-09-13T15:43:41.437Z,24.02
2022-09-13T15:46:15.496Z,24.03
2022-09-13T15:48:50.972Z,24.06
2022-09-13T15:51:17.873Z,23.61
2022-09-13T15:53:46.326Z,23.80
2022-09-13T15:56:16.369Z,23.76
2022-09-13T15:58:43.179Z,23.77
2022-09-13T16:01:12.833Z,23.76
2022-09-13T16:03:40.253Z,23.75
2022-09-13T16:06:11.228Z,23.69
2022-09-13T16:08:39.217Z,23.67
2022-09-13T16:11:07.397Z,23.52
2022-09-13T16:13:35.127Z,23.48
2022-09-13T16:16:05.308Z,23.31
2022-09-13T16:18:32.818Z,23.41
2022-09-13T16:20:59.702Z,23.05
2022-09-13T16:23:26.732Z,23.01
2022-09-13T16:25:56.925Z,22.90
2022-09-13T16:28:23.692Z,22.99
2022-09-13T16:30:50.532Z,23.15
2022-09-13T16:33:17.428Z,23.28
2022-09-13T16:35:44.152Z,23.17
2022-09-13T16:38:11.170Z,22.85
2022-09-13T16:40:43.205Z,23.15
2022-09-13T16:43:10.129Z,23.08
2022-09-13T16:45:41.645Z,22.99
2022-09-13T16:48:08.836Z,23.04
2022-09-13T16:50:39.100Z,22.90
2022-09-13T16:53:06.069Z,22.66
2022-09-13T16:55:32.943Z,22.77
2022-09-13T16:57:59.955Z,22.53
2022-09-13T17:00:28.794Z,22.65
2022-09-13T17:02:56.959Z,22.77
2022-09-13T17:05:24.776Z,22.87
2022-09-13T17:07:52.243Z,22.89
2022-09-13T17:10:20.039Z,22.65
2022-09-13T17:12:46.832Z,22.71
2022-09-13T17:15:13.593Z,22.71
2022-09-13T17:17:40.586Z,22.62
2022-09-13T17:20:11.023Z,22.44
2022-09-13T17:22:38.153Z,22.48
2022-09-13T17:25:07.815Z,22.42
2022-09-13T17:27:34.708Z,22.36
2022-09-13T17:30:02.531Z,22.19
2022-09-13T17:32:29.380Z,22.10
2022-09-13T17:34:56.359Z,22.21
2022-09-13T17:37:23.185Z,21.91
2022-09-13T17:39:50.237Z,22.24
2022-09-13T17:42:21.221Z,22.09
2022-09-13T17:44:49.972Z,22.19
2022-09-13T17:47:16.750Z,22.19
2022-09-13T17:49:43.909Z,21.82
2022-09-13T17:52:10.848Z,22.10
2022-09-13T17:54:37.568Z,22.32
2022-09-13T17:57:04.551Z,22.28
2022-09-13T17:59:32.514Z,22.03
2022-09-13T18:02:01.177Z,22.11
2022-09-13T18:04:28.232Z,22.07
2022-09-13T18:06:55.491Z,22.09
2022-09-13T18:09:23.172Z,22.00
2022-09-13T18:11:50.769Z,22.12
2022-09-13T18:14:19.214Z,21.87
2022-09-13T18:16:46.745Z,21.95
2022-09-13T18:19:14.314Z,21.98
2022-09-13T18:21:42.006Z,21.90
2022-09-13T18:24:09.691Z,21.80
2022-09-13T18:26:37.324Z,20.41
2022-09-13T18:29:07.657Z,21.83
2022-09-13T18:31:36.096Z,20.24
2022-09-13T18:34:05.747Z,20.92
2022-09-13T18:36:35.842Z,21.71
2022-09-13T18:39:04.859Z,21.82
2022-09-13T18:41:37.161Z,21.72
2022-09-13T18:44:07.767Z,21.58
2022-09-13T18:46:35.602Z,21.56
2022-09-13T18:49:03.523Z,21.20
2022-09-13T18:51:41.460Z,20.39
2022-09-13T18:54:10.941Z,20.74
2022-09-13T18:56:38.124Z,21.05
2022-09-13T18:59:06.824Z,21.32
2022-09-13T19:01:37.224Z,21.75
2022-09-13T19:04:07.875Z,21.75
2022-09-13T19:06:41.733Z,21.77
2022-09-13T19:09:09.896Z,20.97
2022-09-13T19:11:48.059Z,20.35
2022-09-13T19:14:21.980Z,20.95
2022-09-13T19:16:49.753Z,20.26
2022-09-13T19:19:17.022Z,20.53
2022-09-13T19:21:44.511Z,20.96
2022-09-13T19:24:18.072Z,21.10
2022-09-13T19:26:47.320Z,20.77
2022-09-13T19:29:16.784Z,20.43
2022-09-13T19:31:48.348Z,20.71
2022-09-13T19:34:18.797Z,20.95
2022-09-13T19:36:46.260Z,21.19
2022-09-13T19:39:13.666Z,21.50
2022-09-13T19:41:41.676Z,21.20
2022-09-13T19:44:09.668Z,21.45
2022-09-13T19:46:39.286Z,21.34
2022-09-13T19:49:08.538Z,21.25
2022-09-13T19:51:40.072Z,21.34
2022-09-13T19:54:10.681Z,21.51
2022-09-13T19:56:40.538Z,21.76
2022-09-13T19:59:08.180Z,21.54
2022-09-13T20:01:37.655Z,21.62
2022-09-13T20:04:06.644Z,21.38
2022-09-13T20:06:42.773Z,21.32
2022-09-13T20:09:10.433Z,21.43
2022-09-13T20:11:42.074Z,21.16
2022-09-13T20:14:09.936Z,20.87
2022-09-13T20:16:39.496Z,20.76
2022-09-13T20:19:36.483Z,20.61
2022-09-13T20:21:58.064Z,20.47
2022-09-13T20:24:25.621Z,20.46
2022-09-13T20:26:52.380Z,20.41
2022-09-13T20:29:19.678Z,20.18
2022-09-13T20:31:46.907Z,20.05
2022-09-13T20:34:15.215Z,20.31
2022-09-13T20:36:44.386Z,20.20
2022-09-13T20:39:11.751Z,20.31
2022-09-13T20:41:38.574Z,20.21
2022-09-13T20:44:05.615Z,20.40
2022-09-13T20:46:32.556Z,20.26
2022-09-13T20:48:59.628Z,20.21
2022-09-13T20:51:29.568Z,20.39
2022-09-13T20:54:00.813Z,20.18
2022-09-13T20:56:34.597Z,19.88
2022-09-13T20:59:02.737Z,20.02
2022-09-13T21:01:31.310Z,19.72
2022-09-13T21:03:59.518Z,19.71
2022-09-13T21:06:28.712Z,19.73
2022-09-13T21:09:00.043Z,19.56
2022-09-13T21:11:30.576Z,19.71
2022-09-13T21:14:10.110Z,19.77
2022-09-13T21:16:39.795Z,19.82
2022-09-13T21:19:07.035Z,19.83
2022-09-13T21:21:36.071Z,19.77
2022-09-13T21:24:04.888Z,19.79
2022-09-13T21:26:32.337Z,19.70
2022-09-13T21:28:59.788Z,19.76
2022-09-13T21:31:30.101Z,19.67
2022-09-13T21:34:08.685Z,19.58
2022-09-13T21:36:36.080Z,19.69
2022-09-13T21:39:03.576Z,19.72
2022-09-13T21:41:30.879Z,19.57
2022-09-13T21:43:57.828Z,19.40
2022-09-13T21:46:30.168Z,19.48
2022-09-13T21:48:59.642Z,19.45
2022-09-13T21:51:35.116Z,19.43
2022-09-13T21:54:05.686Z,19.52
2022-09-13T21:56:44.091Z,19.39
2022-09-13T21:59:15.877Z,19.53
2022-09-13T22:01:46.977Z,19.48
2022-09-13T22:04:17.510Z,19.52
2022-09-13T22:06:45.881Z,19.35
2022-09-13T22:09:14.315Z,19.00
2022-09-13T22:11:43.980Z,18.97
2022-09-13T22:14:13.520Z,19.02
2022-09-13T22:16:42.452Z,19.06
2022-09-13T22:19:16.432Z,19.12
2022-09-13T22:21:46.966Z,18.96
2022-09-13T22:24:17.636Z,19.13
2022-09-13T22:26:46.091Z,19.12
2022-09-13T22:29:12.925Z,19.23
2022-09-13T22:31:41.406Z,19.28
2022-09-13T22:34:12.065Z,19.24
2022-09-13T22:36:39.078Z,19.09
2022-09-13T22:39:06.044Z,19.30
2022-09-13T22:41:34.525Z,19.35
2022-09-13T22:44:02.987Z,19.58
2022-09-13T22:46:40.579Z,19.60
2022-09-13T22:49:09.299Z,19.52
2022-09-13T22:51:36.090Z,19.29
2022-09-13T22:54:07.043Z,19.47
2022-09-13T22:56:36.206Z,19.46
2022-09-13T22:59:18.232Z,19.42
2022-09-13T23:01:45.739Z,19.29
2022-09-13T23:04:13.090Z,19.08
2022-09-13T23:06:40.957Z,18.92
2022-09-13T23:09:08.872Z,18.96
2022-09-13T23:11:40.111Z,18.87
2022-09-13T23:14:10.232Z,18.94
2022-09-13T23:16:45.483Z,19.03
2022-09-13T23:19:13.803Z,18.98
2022-09-13T23:21:41.242Z,18.94
2022-09-13T23:24:13.605Z,18.93
2022-09-13T23:26:40.992Z,18.85
2022-09-13T23:29:08.166Z,18.61
2022-09-13T23:31:39.067Z,18.87
2022-09-13T23:34:08.127Z,18.81
2022-09-13T23:36:37.567Z,18.80
2022-09-13T23:39:08.135Z,18.84
2022-09-13T23:41:35.155Z,18.79
2022-09-13T23:44:02.997Z,18.81
2022-09-13T23:46:30.241Z,18.85
2022-09-13T23:48:57.174Z,18.85
2022-09-13T23:51:25.805Z,18.88
2022-09-13T23:53:58.032Z,18.84
2022-09-13T23:56:26.569Z,18.93
2022-09-13T23:58:59.346Z,19.04
